createdAt,value
2018-06-10T00:00:16.855Z,78.94
2018-06-10T00:01:25.719Z,79.91
2018-06-10T00:02:34.864Z,79.14
2018-06-10T00:03:44.005Z,79.91
2018-06-10T00:04:53.148Z,79.62
2018-06-10T00:06:02.563Z,79.04
2018-06-10T00:07:11.704Z,79.72
2018-06-10T00:08:20.570Z,79.43
2018-06-10T00:09:29.487Z,79.14
2018-06-10T00:10:38.349Z,79.72
2018-06-10T00:11:47.216Z,79.72
2018-06-10T00:12:56.357Z,80.97
2018-06-10T00:14:05.222Z,80.97
2018-06-10T00:15:14.413Z,79.72
2018-06-10T00:16:23.276Z,79.72
2018-06-10T00:17:32.142Z,79.43
2018-06-10T00:18:41.283Z,79.52
2018-06-10T00:19:50.425Z,79.04
2018-06-10T00:20:59.342Z,79.14
2018-06-10T00:22:08.480Z,78.52
2018-06-10T00:23:17.347Z,78.66
2018-06-10T00:24:26.485Z,78.94
2018-06-10T00:25:35.351Z,79
2018-06-10T00:26:44.363Z,78.61
2018-06-10T00:27:53.504Z,78.03
2018-06-10T00:29:02.368Z,78.42
2018-06-10T00:30:11.230Z,78.27
2018-06-10T00:31:20.098Z,77.75
2018-06-10T00:32:29.239Z,78.17
2018-06-10T00:33:38.103Z,77.84
2018-06-10T00:34:47.241Z,77.55
2018-06-10T00:35:56.106Z,77.46
2018-06-10T00:37:04.971Z,77.75
2018-06-10T00:38:14.188Z,77.75
2018-06-10T00:39:23.052Z,77.36
2018-06-10T00:40:31.916Z,77.55
2018-06-10T00:41:40.777Z,77.46
2018-06-10T00:42:49.640Z,78.33
2018-06-10T00:43:58.605Z,78.23
2018-06-10T00:45:07.468Z,78.03
2018-06-10T00:46:16.332Z,78.13
2018-06-10T00:47:25.196Z,78.61
2018-06-10T00:48:34.062Z,79.77
2018-06-10T00:49:43.204Z,79.19
2018-06-10T00:50:52.069Z,78.23
2018-06-10T00:52:00.934Z,78.52
2018-06-10T00:53:09.799Z,78.38
2018-06-10T00:54:18.674Z,78.23
2018-06-10T00:55:27.679Z,78.13
2018-06-10T00:56:36.543Z,78.33
2018-06-10T00:57:45.689Z,77.26
2018-06-10T00:58:54.828Z,77.84
2018-06-10T01:00:03.966Z,77.9
2018-06-10T01:01:12.982Z,77.71
2018-06-10T01:02:21.860Z,76.5
2018-06-10T01:03:30.715Z,76.68
2018-06-10T01:04:39.582Z,76.26
2018-06-10T01:05:48.446Z,76.26
2018-06-10T01:06:57.311Z,76.26
2018-06-10T01:08:06.177Z,76.45
2018-06-10T01:09:15.042Z,76.45
2018-06-10T01:10:23.907Z,76.26
2018-06-10T01:11:32.772Z,76.26
2018-06-10T01:12:41.915Z,75.59
2018-06-10T01:13:50.781Z,74.72
2018-06-10T01:14:59.645Z,74.91
2018-06-10T01:16:08.511Z,74.82
2018-06-10T01:17:17.375Z,75.1
2018-06-10T01:18:26.299Z,74.82
2018-06-10T01:19:35.156Z,74.82
2018-06-10T01:20:44.021Z,75.2
2018-06-10T01:21:52.887Z,74.91
2018-06-10T01:23:02.303Z,75.4
2018-06-10T01:24:11.165Z,75.55
2018-06-10T01:25:20.029Z,74.78
2018-06-10T01:26:29.170Z,75.74
2018-06-10T01:27:38.033Z,75.26
2018-06-10T01:28:46.896Z,75.65
2018-06-10T01:29:55.759Z,76.03
2018-06-10T01:31:04.931Z,75.36
2018-06-10T01:32:14.075Z,75.74
2018-06-10T01:33:22.939Z,74.88
2018-06-10T01:34:31.805Z,74.78
2018-06-10T01:35:40.670Z,75.55
2018-06-10T01:36:49.810Z,75.45
2018-06-10T01:37:58.952Z,74.97
2018-06-10T01:39:07.817Z,75.26
2018-06-10T01:40:16.683Z,74.49
2018-06-10T01:41:25.700Z,75.65
2018-06-10T01:42:34.564Z,75.65
2018-06-10T01:43:43.705Z,75.93
2018-06-10T01:44:52.572Z,75.65
2018-06-10T01:46:01.717Z,75.61
2018-06-10T01:47:10.581Z,75.26
2018-06-10T01:48:19.446Z,75.74
2018-06-10T01:49:28.308Z,76.09
2018-06-10T01:50:37.174Z,76.03
2018-06-10T01:51:46.038Z,75.74
2018-06-10T01:52:54.999Z,75.23
2018-06-10T01:54:03.863Z,75.32
2018-06-10T01:55:12.729Z,76.76
2018-06-10T01:56:21.597Z,79.66
2018-06-10T01:57:31.016Z,81.43
2018-06-10T01:58:39.875Z,81.29
2018-06-10T01:59:49.016Z,84.76
2018-06-10T02:00:58.154Z,85.14
2018-06-10T02:02:07.018Z,87.94
2018-06-10T02:03:15.881Z,87.17
2018-06-10T02:04:24.745Z,89.53
2018-06-10T02:05:33.615Z,90.34
2018-06-10T02:06:42.478Z,89
2018-06-10T02:07:51.340Z,91.69
2018-06-10T02:09:00.205Z,92.66
2018-06-10T02:10:09.418Z,92.85
2018-06-10T02:11:18.282Z,94.49
2018-06-10T02:12:27.695Z,93.77
2018-06-10T02:13:36.561Z,95.02
2018-06-10T02:14:45.982Z,94.73
2018-06-10T02:15:55.047Z,95.31
2018-06-10T02:17:04.472Z,95.89
2018-06-10T02:18:13.335Z,95.98
2018-06-10T02:19:22.203Z,95.89
2018-06-10T02:20:31.069Z,94.97
2018-06-10T02:21:40.186Z,94.97
2018-06-10T02:22:49.048Z,93.91
2018-06-10T02:23:57.913Z,92.13
2018-06-10T02:25:07.050Z,93.77
2018-06-10T02:26:15.913Z,91.36
2018-06-10T02:27:25.100Z,92.03
2018-06-10T02:28:34.241Z,94.44
2018-06-10T02:29:43.380Z,94.73
2018-06-10T02:30:53.080Z,93.96
2018-06-10T02:32:01.946Z,94.44
2018-06-10T02:33:11.157Z,94.64
2018-06-10T02:34:20.307Z,94.15
2018-06-10T02:35:29.170Z,94.64
2018-06-10T02:36:38.047Z,94.54
2018-06-10T02:37:47.178Z,94.34
2018-06-10T02:38:56.371Z,93.96
2018-06-10T02:40:05.237Z,94.06
2018-06-10T02:41:14.105Z,94.15
2018-06-10T02:42:23.243Z,94.25
2018-06-10T02:43:32.109Z,94.25
2018-06-10T02:44:41.022Z,93.91
2018-06-10T02:45:50.173Z,94.15
2018-06-10T02:46:59.035Z,94.2
2018-06-10T02:48:08.179Z,94.1
2018-06-10T02:49:17.045Z,93.24
2018-06-10T02:50:26.183Z,93.24
2018-06-10T02:51:35.324Z,92.28
2018-06-10T02:52:44.475Z,91.89
2018-06-10T02:53:53.633Z,92.28
2018-06-10T02:55:03.064Z,92.85
2018-06-10T02:56:12.364Z,92.57
2018-06-10T02:57:21.499Z,92.47
2018-06-10T02:58:30.691Z,90.93
2018-06-10T02:59:40.107Z,91.89
2018-06-10T03:00:49.247Z,91.8
2018-06-10T03:01:58.115Z,91.75
2018-06-10T03:03:07.540Z,91.84
2018-06-10T03:04:16.686Z,89.05
2018-06-10T03:05:25.553Z,92.32
2018-06-10T03:06:35.034Z,91.17
2018-06-10T03:07:44.230Z,91.07
2018-06-10T03:08:53.041Z,91.84
2018-06-10T03:10:01.919Z,92.18
2018-06-10T03:11:11.626Z,91.84
2018-06-10T03:12:20.781Z,91.41
2018-06-10T03:13:29.963Z,91.36
2018-06-10T03:14:39.382Z,90.73
2018-06-10T03:15:48.802Z,89.97
2018-06-10T03:16:57.669Z,89.01
2018-06-10T03:18:06.532Z,88.14
2018-06-10T03:19:16.044Z,88.33
2018-06-10T03:20:24.909Z,87.27
2018-06-10T03:21:33.771Z,85.93
2018-06-10T03:22:42.912Z,87.27
2018-06-10T03:23:51.780Z,86.6
2018-06-10T03:25:00.689Z,85.64
2018-06-10T03:26:09.551Z,86.02
2018-06-10T03:27:18.412Z,85.35
2018-06-10T03:28:27.833Z,86.41
2018-06-10T03:29:36.695Z,86.02
2018-06-10T03:30:45.985Z,86.12
2018-06-10T03:31:55.982Z,85.54
2018-06-10T03:33:05.404Z,86.41
2018-06-10T03:34:14.551Z,86.22
2018-06-10T03:35:23.407Z,85.74
2018-06-10T03:36:32.620Z,86.51
2018-06-10T03:37:41.509Z,85.16
2018-06-10T03:38:50.346Z,86.02
2018-06-10T03:39:59.209Z,85.74
2018-06-10T03:41:08.355Z,85.54
2018-06-10T03:42:17.549Z,85.35
2018-06-10T03:43:26.409Z,85.74
2018-06-10T03:44:35.370Z,85.93
2018-06-10T03:45:44.232Z,86.31
2018-06-10T03:46:53.374Z,85.54
2018-06-10T03:48:02.612Z,86.02
2018-06-10T03:49:11.474Z,86.41
2018-06-10T03:50:20.337Z,85.83
2018-06-10T03:51:29.250Z,86.51
2018-06-10T03:52:38.665Z,86.41
2018-06-10T03:53:48.156Z,86.51
2018-06-10T03:54:57.017Z,86.12
2018-06-10T03:56:05.881Z,85.83
2018-06-10T03:57:14.746Z,86.02
2018-06-10T03:58:23.608Z,86.02
2018-06-10T03:59:32.621Z,85.44
2018-06-10T04:00:42.036Z,85.54
2018-06-10T04:01:50.898Z,86.22
2018-06-10T04:02:59.764Z,86.6
2018-06-10T04:04:08.623Z,86.51
2018-06-10T04:05:17.585Z,86.31
2018-06-10T04:06:26.448Z,85.54
2018-06-10T04:07:35.591Z,85.74
2018-06-10T04:08:44.730Z,84.77
2018-06-10T04:09:53.591Z,85.06
2018-06-10T04:11:02.579Z,84.73
2018-06-10T04:12:11.443Z,84.63
2018-06-10T04:13:20.584Z,84.19
2018-06-10T04:14:29.445Z,83.96
2018-06-10T04:15:38.581Z,83.39
2018-06-10T04:16:47.873Z,83.19
2018-06-10T04:17:56.735Z,83.09
2018-06-10T04:19:05.601Z,82.61
2018-06-10T04:20:14.464Z,82.61
2018-06-10T04:21:23.326Z,82.42
2018-06-10T04:22:32.290Z,82.42
2018-06-10T04:23:41.105Z,81.65
2018-06-10T04:24:49.969Z,81.75
2018-06-10T04:25:58.840Z,81.94
2018-06-10T04:27:07.702Z,81.75
2018-06-10T04:28:16.822Z,81.37
2018-06-10T04:29:25.678Z,81.56
2018-06-10T04:30:34.822Z,81.56
2018-06-10T04:31:43.685Z,81.46
2018-06-10T04:32:52.549Z,81.79
2018-06-10T04:34:01.564Z,81.56
2018-06-10T04:35:10.426Z,81.79
2018-06-10T04:36:19.849Z,81.65
2018-06-10T04:37:28.994Z,81.56
2018-06-10T04:38:37.856Z,81.56
2018-06-10T04:39:47.562Z,81.65
2018-06-10T04:40:56.394Z,81.46
2018-06-10T04:42:05.256Z,81.84
2018-06-10T04:43:14.118Z,81.07
2018-06-10T04:44:22.984Z,81.07
2018-06-10T04:45:31.900Z,81.3
2018-06-10T04:46:40.765Z,81.3
2018-06-10T04:47:49.909Z,80.98
2018-06-10T04:48:58.772Z,80.88
2018-06-10T04:50:07.637Z,81.07
2018-06-10T04:51:16.751Z,81.46
2018-06-10T04:52:25.613Z,81.07
2018-06-10T04:53:34.475Z,80.88
2018-06-10T04:54:43.340Z,81.07
2018-06-10T04:55:52.203Z,81.07
2018-06-10T04:57:01.443Z,81.17
2018-06-10T04:58:10.306Z,80.98
2018-06-10T04:59:19.173Z,81.07
2018-06-10T05:00:28.315Z,81.07
2018-06-10T05:01:37.229Z,80.98
2018-06-10T05:02:46.094Z,80.92
2018-06-10T05:03:55.514Z,80.98
2018-06-10T05:05:04.376Z,80.98
2018-06-10T05:06:13.245Z,81.84
2018-06-10T05:07:22.384Z,81.94
2018-06-10T05:08:31.251Z,81.84
2018-06-10T05:09:40.391Z,81.71
2018-06-10T05:10:49.254Z,80.94
2018-06-10T05:11:58.399Z,81.65
2018-06-10T05:13:07.263Z,81.94
2018-06-10T05:14:16.133Z,81.65
2018-06-10T05:15:24.996Z,81.17
2018-06-10T05:16:34.144Z,81.17
2018-06-10T05:17:43.006Z,81.84
2018-06-10T05:18:51.869Z,81.65
2018-06-10T05:20:01.093Z,81.56
2018-06-10T05:21:09.927Z,81.27
2018-06-10T05:22:19.067Z,81.37
2018-06-10T05:23:28.209Z,81.84
2018-06-10T05:24:37.072Z,81.61
2018-06-10T05:25:46.034Z,81.71
2018-06-10T05:26:54.896Z,81.71
2018-06-10T05:28:03.784Z,81.61
2018-06-10T05:29:12.932Z,81.65
2018-06-10T05:30:21.793Z,81.71
2018-06-10T05:31:30.806Z,81.13
2018-06-10T05:32:39.667Z,80.84
2018-06-10T05:33:48.531Z,81.04
2018-06-10T05:34:57.396Z,81.9
2018-06-10T05:36:06.261Z,81.71
2018-06-10T05:37:15.221Z,81.42
2018-06-10T05:38:24.082Z,81.13
2018-06-10T05:39:32.946Z,81.99
2018-06-10T05:40:41.811Z,81.99
2018-06-10T05:41:50.673Z,82.09
2018-06-10T05:42:59.534Z,82.48
2018-06-10T05:44:08.402Z,82.63
2018-06-10T05:45:17.537Z,82.63
2018-06-10T05:46:26.399Z,82.05
2018-06-10T05:47:35.262Z,82.63
2018-06-10T05:48:44.507Z,82.24
2018-06-10T05:49:53.370Z,82.05
2018-06-10T05:51:02.237Z,82.34
2018-06-10T05:52:11.651Z,82.43
2018-06-10T05:53:20.513Z,82.24
2018-06-10T05:54:29.379Z,81.48
2018-06-10T05:55:38.237Z,81.76
2018-06-10T05:56:47.101Z,82.24
2018-06-10T05:57:56.244Z,82.24
2018-06-10T05:59:05.106Z,82.1
2018-06-10T06:00:14.070Z,82.34
2018-06-10T06:01:23.211Z,81.82
2018-06-10T06:02:32.070Z,81.15
2018-06-10T06:03:40.934Z,80.66
2018-06-10T06:04:49.803Z,80.86
2018-06-10T06:05:58.708Z,80.66
2018-06-10T06:07:07.571Z,80.99
2018-06-10T06:08:16.719Z,80.71
2018-06-10T06:09:25.854Z,80.57
2018-06-10T06:10:34.715Z,79.03
2018-06-10T06:11:43.868Z,78.17
2018-06-10T06:12:52.733Z,77.98
2018-06-10T06:14:01.594Z,78.69
2018-06-10T06:15:10.462Z,78.21
2018-06-10T06:16:19.600Z,77.4
2018-06-10T06:17:28.569Z,75.48
2018-06-10T06:18:37.431Z,74.43
2018-06-10T06:19:46.296Z,72.95
2018-06-10T06:20:55.161Z,72.85
2018-06-10T06:22:04.022Z,72.56
2018-06-10T06:23:12.882Z,71.61
2018-06-10T06:24:21.743Z,70.93
2018-06-10T06:25:30.608Z,70.17
2018-06-10T06:26:39.467Z,70.36
2018-06-10T06:27:48.328Z,70.49
2018-06-10T06:28:57.242Z,69.53
2018-06-10T06:30:06.107Z,69.68
2018-06-10T06:31:15.804Z,69.72
2018-06-10T06:32:24.665Z,68.76
2018-06-10T06:33:33.528Z,68.66
2018-06-10T06:34:42.539Z,69.05
2018-06-10T06:35:51.402Z,68.95
2018-06-10T06:37:00.262Z,69.01
2018-06-10T06:38:09.128Z,68.82
2018-06-10T06:39:18.292Z,68.34
2018-06-10T06:40:27.229Z,68.44
2018-06-10T06:41:36.093Z,67.86
2018-06-10T06:42:44.957Z,66.9
2018-06-10T06:43:53.819Z,66.9
2018-06-10T06:45:02.686Z,66.13
2018-06-10T06:46:11.902Z,66.26
2018-06-10T06:47:20.765Z,66.07
2018-06-10T06:48:29.909Z,65.84
2018-06-10T06:49:39.051Z,65.84
2018-06-10T06:50:48.190Z,65.75
2018-06-10T06:51:57.054Z,65.4
2018-06-10T06:53:05.916Z,65.2
2018-06-10T06:54:15.055Z,65.46
2018-06-10T06:55:23.917Z,65.56
2018-06-10T06:56:32.781Z,65.59
2018-06-10T06:57:41.693Z,65.3
2018-06-10T06:58:50.556Z,65.59
2018-06-10T06:59:59.418Z,65.01
2018-06-10T07:01:08.562Z,65.69
2018-06-10T07:02:17.426Z,65.59
2018-06-10T07:03:26.291Z,65.4
2018-06-10T07:04:35.703Z,65.01
2018-06-10T07:05:44.570Z,64.92
2018-06-10T07:06:53.433Z,64.92
2018-06-10T07:08:02.295Z,64.82
2018-06-10T07:09:11.157Z,65.2
2018-06-10T07:10:20.029Z,65.01
2018-06-10T07:11:28.892Z,64.82
2018-06-10T07:12:37.757Z,64.82
2018-06-10T07:13:46.646Z,64.92
2018-06-10T07:14:55.859Z,64.82
2018-06-10T07:16:04.723Z,64.92
2018-06-10T07:17:13.589Z,65.11
2018-06-10T07:18:22.459Z,65.3
2018-06-10T07:19:31.329Z,64.92
2018-06-10T07:20:40.241Z,64.63
2018-06-10T07:21:49.106Z,65.2
2018-06-10T07:22:57.973Z,65.01
2018-06-10T07:24:06.840Z,64.82
2018-06-10T07:25:15.706Z,65.59
2018-06-10T07:26:24.917Z,65.2
2018-06-10T07:27:34.907Z,65.2
2018-06-10T07:28:47.067Z,64.92
2018-06-10T07:29:56.207Z,64.69
2018-06-10T07:31:05.074Z,64.82
2018-06-10T07:32:14.085Z,63.92
2018-06-10T07:33:23.291Z,62.96
2018-06-10T07:34:32.430Z,64.02
2018-06-10T07:35:41.291Z,63.96
2018-06-10T07:36:50.157Z,63.92
2018-06-10T07:37:59.120Z,63.09
2018-06-10T07:39:07.983Z,63.06
2018-06-10T07:40:17.401Z,62.01
2018-06-10T07:41:26.263Z,61.05
2018-06-10T07:42:35.404Z,59.8
2018-06-10T07:43:44.650Z,58.84
2018-06-10T07:44:53.510Z,59.41
2018-06-10T07:46:02.373Z,57.88
2018-06-10T07:47:11.239Z,58.45
2018-06-10T07:48:20.409Z,57.3
2018-06-10T07:49:29.605Z,55.47
2018-06-10T07:50:38.470Z,53.66
2018-06-10T07:51:47.332Z,52.89
2018-06-10T07:52:56.468Z,52.4
2018-06-10T07:54:05.606Z,51.45
2018-06-10T07:55:14.522Z,50.87
2018-06-10T07:56:23.660Z,51.06
2018-06-10T07:57:33.375Z,49.43
2018-06-10T07:58:42.615Z,47.8
2018-06-10T07:59:51.481Z,47.13
2018-06-10T08:01:00.629Z,46.17
2018-06-10T08:02:09.768Z,45.98
2018-06-10T08:03:18.907Z,45.11
2018-06-10T08:04:27.770Z,44.15
2018-06-10T08:05:36.905Z,44.15
2018-06-10T08:06:45.766Z,44.34
2018-06-10T08:07:54.630Z,43.57
2018-06-10T08:09:03.492Z,43.67
2018-06-10T08:10:12.353Z,43.57
2018-06-10T08:11:21.215Z,41.75
2018-06-10T08:12:30.080Z,41.66
2018-06-10T08:13:38.952Z,41.17
2018-06-10T08:14:47.807Z,40.79
2018-06-10T08:15:56.963Z,39.73
2018-06-10T08:17:05.824Z,39.45
2018-06-10T08:18:14.688Z,39.45
2018-06-10T08:19:23.554Z,39.64
2018-06-10T08:20:32.417Z,39.45
2018-06-10T08:21:41.552Z,38.59
2018-06-10T08:22:50.419Z,36.57
2018-06-10T08:23:59.557Z,35.82
2018-06-10T08:25:08.712Z,35.22
2018-06-10T08:26:17.722Z,33.11
2018-06-10T08:27:26.881Z,32.75
2018-06-10T08:28:35.743Z,32.15
2018-06-10T08:29:44.604Z,31.96
2018-06-10T08:30:53.466Z,31.58
2018-06-10T08:32:03.215Z,29.75
2018-06-10T08:33:12.349Z,29.27
2018-06-10T08:34:21.216Z,28.91
2018-06-10T08:35:30.354Z,28.52
2018-06-10T08:36:39.222Z,27.93
2018-06-10T08:37:48.619Z,27.66
2018-06-10T08:38:57.487Z,27.17
2018-06-10T08:40:06.934Z,26.7
2018-06-10T08:41:15.799Z,25.45
2018-06-10T08:42:24.939Z,25.06
2018-06-10T08:43:33.950Z,24.68
2018-06-10T08:44:42.813Z,24.68
2018-06-10T08:45:51.675Z,24.49
2018-06-10T08:47:00.536Z,24.2
2018-06-10T08:48:09.543Z,23.91
2018-06-10T08:49:18.599Z,23.43
2018-06-10T08:50:27.538Z,22.95
2018-06-10T08:51:36.372Z,22.38
2018-06-10T08:52:45.511Z,21.61
2018-06-10T08:53:54.650Z,20.56
2018-06-10T08:55:03.517Z,20.17
2018-06-10T08:56:12.380Z,19.4
2018-06-10T08:57:21.522Z,19.21
2018-06-10T08:58:30.384Z,18.93
2018-06-10T08:59:39.530Z,19.31
2018-06-10T09:00:50.676Z,19.12
2018-06-10T09:02:03.290Z,19.31
2018-06-10T09:03:14.605Z,18.35
2018-06-10T09:04:23.473Z,18.54
2018-06-10T09:05:32.332Z,18.16
2018-06-10T09:06:41.655Z,18.35
2018-06-10T09:07:51.535Z,18.44
2018-06-10T09:09:00.535Z,17.96
2018-06-10T09:10:09.954Z,17.68
2018-06-10T09:11:19.100Z,18.26
2018-06-10T09:12:27.974Z,17.1
2018-06-10T09:13:36.830Z,17
2018-06-10T09:14:45.708Z,17.11
2018-06-10T09:15:54.556Z,17.4
2018-06-10T09:17:03.424Z,17.77
2018-06-10T09:18:12.283Z,17.77
2018-06-10T09:19:21.146Z,17.49
2018-06-10T09:20:30.011Z,17.01
2018-06-10T09:21:39.153Z,16.24
2018-06-10T09:22:48.298Z,16.44
2018-06-10T09:23:57.165Z,16.44
2018-06-10T09:25:06.029Z,16.15
2018-06-10T09:26:14.892Z,15.67
2018-06-10T09:27:23.753Z,15.19
2018-06-10T09:28:32.900Z,15
2018-06-10T09:29:41.764Z,15.67
2018-06-10T09:30:50.640Z,16.34
2018-06-10T09:31:59.599Z,15.19
2018-06-10T09:33:08.741Z,15.09
2018-06-10T09:34:18.187Z,15.19
2018-06-10T09:35:27.112Z,15.57
2018-06-10T09:36:35.918Z,15.57
2018-06-10T09:37:45.131Z,15.57
2018-06-10T09:38:53.998Z,15.58
2018-06-10T09:40:03.145Z,15.38
2018-06-10T09:41:12.011Z,15.48
2018-06-10T09:42:20.883Z,14.42
2018-06-10T09:43:30.201Z,14.23
2018-06-10T09:44:39.065Z,14.42
2018-06-10T09:45:48.204Z,14.32
2018-06-10T09:46:57.070Z,15.67
2018-06-10T09:48:05.936Z,17.41
2018-06-10T09:49:15.061Z,16.16
2018-06-10T09:50:23.926Z,17.41
2018-06-10T09:51:32.789Z,16.16
2018-06-10T09:52:42.222Z,16.35
2018-06-10T09:53:51.076Z,15.58
2018-06-10T09:54:59.941Z,17.79
2018-06-10T09:56:09.238Z,17.88
2018-06-10T09:57:18.116Z,16.16
2018-06-10T09:58:26.980Z,16.06
2018-06-10T09:59:35.847Z,14.9
2018-06-10T10:00:44.717Z,16.36
2018-06-10T10:01:53.577Z,18.27
2018-06-10T10:03:03.005Z,17.88
2018-06-10T10:04:11.949Z,17.41
2018-06-10T10:05:20.833Z,21.25
2018-06-10T10:06:29.699Z,17.79
2018-06-10T10:07:38.611Z,17.8
2018-06-10T10:08:47.461Z,15.48
2018-06-10T10:09:56.614Z,16.93
2018-06-10T10:11:05.766Z,18.86
2018-06-10T10:12:14.904Z,19.92
2018-06-10T10:13:24.108Z,22.61
2018-06-10T10:14:33.101Z,22.13
2018-06-10T10:15:42.378Z,23.86
2018-06-10T10:16:51.243Z,25.02
2018-06-10T10:18:00.109Z,16.55
2018-06-10T10:19:08.976Z,22.42
2018-06-10T10:20:17.890Z,21.45
2018-06-10T10:21:26.875Z,23.19
2018-06-10T10:22:35.768Z,23.47
2018-06-10T10:23:44.914Z,24.34
2018-06-10T10:24:54.060Z,25.21
2018-06-10T10:26:03.113Z,26.65
2018-06-10T10:27:11.984Z,28.48
2018-06-10T10:28:20.855Z,25.11
2018-06-10T10:29:29.763Z,26.07
2018-06-10T10:30:38.637Z,27.42
2018-06-10T10:31:47.894Z,24.92
2018-06-10T10:32:57.065Z,23.57
2018-06-10T10:34:06.211Z,25.11
2018-06-10T10:35:15.080Z,19.15
2018-06-10T10:36:23.943Z,26.07
2018-06-10T10:37:33.061Z,20.4
2018-06-10T10:38:41.928Z,19.92
2018-06-10T10:39:51.073Z,25.11
2018-06-10T10:40:59.961Z,28.86
2018-06-10T10:42:08.827Z,27.61
2018-06-10T10:43:17.842Z,21.94
2018-06-10T10:44:26.834Z,29.15
2018-06-10T10:45:35.700Z,27.61
2018-06-10T10:46:44.573Z,19.63
2018-06-10T10:47:53.438Z,24.16
2018-06-10T10:49:02.504Z,32.82
2018-06-10T10:50:11.527Z,33.97
2018-06-10T10:51:20.399Z,27.71
2018-06-10T10:52:29.545Z,33.29
2018-06-10T10:53:38.842Z,32.62
2018-06-10T10:54:47.855Z,32.04
2018-06-10T10:55:56.723Z,30.04
2018-06-10T10:57:06.039Z,32.82
2018-06-10T10:58:15.364Z,26.47
2018-06-10T10:59:24.229Z,37.35
2018-06-10T11:00:33.098Z,37.54
2018-06-10T11:01:41.961Z,25.42
2018-06-10T11:02:50.826Z,35.24
2018-06-10T11:03:59.695Z,36.58
2018-06-10T11:05:08.871Z,37.06
2018-06-10T11:06:18.107Z,32.44
2018-06-10T11:07:26.974Z,33.02
2018-06-10T11:08:35.861Z,29.18
2018-06-10T11:09:45.010Z,35.64
2018-06-10T11:10:54.261Z,37.37
2018-06-10T11:12:03.366Z,36.41
2018-06-10T11:13:12.513Z,37.37
2018-06-10T11:14:21.665Z,24.85
2018-06-10T11:15:30.530Z,42.59
2018-06-10T11:16:39.679Z,25.62
2018-06-10T11:17:48.698Z,41.72
2018-06-10T11:18:57.568Z,40.55
2018-06-10T11:20:06.435Z,46.52
2018-06-10T11:21:15.300Z,39.78
2018-06-10T11:22:24.442Z,37.18
2018-06-10T11:23:33.460Z,45.77
2018-06-10T11:24:42.884Z,49.24
2018-06-10T11:25:51.752Z,39.41
2018-06-10T11:27:00.658Z,52.81
2018-06-10T11:28:09.782Z,44.62
2018-06-10T11:29:19.221Z,47.22
2018-06-10T11:30:28.086Z,35.17
2018-06-10T11:31:36.958Z,42.21
2018-06-10T11:32:46.097Z,52.81
2018-06-10T11:33:54.964Z,52.91
2018-06-10T11:35:04.156Z,52.33
2018-06-10T11:36:13.024Z,36.73
2018-06-10T11:37:22.171Z,53.03
2018-06-10T11:38:31.035Z,63.92
2018-06-10T11:39:39.902Z,60.32
2018-06-10T11:40:48.922Z,55.79
2018-06-10T11:41:58.072Z,59.78
2018-06-10T11:43:06.940Z,63.34
2018-06-10T11:44:15.808Z,44.25
2018-06-10T11:45:24.673Z,53.22
2018-06-10T11:46:33.542Z,55.73
2018-06-10T11:47:42.958Z,64.98
2018-06-10T11:48:52.381Z,55.73
2018-06-10T11:50:01.251Z,45.82
2018-06-10T11:51:10.669Z,48.42
2018-06-10T11:52:19.685Z,60.77
2018-06-10T11:53:28.553Z,65.98
2018-06-10T11:54:37.694Z,60.96
2018-06-10T11:55:46.842Z,48.03
2018-06-10T11:56:55.712Z,55.46
2018-06-10T11:58:04.615Z,64.24
2018-06-10T11:59:14.049Z,57.97
2018-06-10T12:00:23.190Z,68.43
2018-06-10T12:01:32.062Z,70.64
2018-06-10T12:02:40.927Z,49.9
2018-06-10T12:03:49.802Z,66.11
2018-06-10T12:04:58.669Z,76.53
2018-06-10T12:06:07.536Z,61.38
2018-06-10T12:07:16.404Z,71.7
2018-06-10T12:08:25.271Z,55.08
2018-06-10T12:09:34.199Z,56.94
2018-06-10T12:10:43.072Z,72.67
2018-06-10T12:11:52.271Z,73.06
2018-06-10T12:13:01.137Z,72.71
2018-06-10T12:14:10.030Z,71.12
2018-06-10T12:15:19.348Z,78.31
2018-06-10T12:16:28.219Z,80.24
2018-06-10T12:17:37.091Z,72.9
2018-06-10T12:18:45.963Z,75.02
2018-06-10T12:19:54.832Z,64.11
2018-06-10T12:21:04.155Z,80.05
2018-06-10T12:22:13.025Z,76.95
2018-06-10T12:23:21.894Z,81.68
2018-06-10T12:24:31.194Z,75.51
2018-06-10T12:25:40.335Z,65.11
2018-06-10T12:26:49.311Z,75.35
2018-06-10T12:27:58.180Z,77.48
2018-06-10T12:29:07.049Z,84.28
2018-06-10T12:30:15.921Z,75.39
2018-06-10T12:31:25.139Z,82.25
2018-06-10T12:32:34.378Z,85.97
2018-06-10T12:33:43.250Z,76.74
2018-06-10T12:34:52.183Z,83.55
2018-06-10T12:36:01.054Z,85.19
2018-06-10T12:37:10.210Z,80.79
2018-06-10T12:38:19.789Z,78.27
2018-06-10T12:39:28.663Z,82.33
2018-06-10T12:40:37.821Z,84.27
2018-06-10T12:41:46.692Z,85.96
2018-06-10T12:42:55.567Z,86.54
2018-06-10T12:44:04.793Z,85.86
2018-06-10T12:45:13.665Z,87.7
2018-06-10T12:46:22.540Z,84.41
2018-06-10T12:47:31.415Z,84.35
2018-06-10T12:48:40.289Z,84.25
2018-06-10T12:49:49.514Z,84.93
2018-06-10T12:50:58.673Z,83.86
2018-06-10T12:52:07.549Z,83.92
2018-06-10T12:53:16.426Z,84.45
2018-06-10T12:54:25.300Z,83
2018-06-10T12:55:34.326Z,84.2
2018-06-10T12:56:43.754Z,84.97
2018-06-10T12:57:52.935Z,84.2
2018-06-10T12:59:02.094Z,80.42
2018-06-10T13:00:10.972Z,82.9
2018-06-10T13:01:19.896Z,86.09
2018-06-10T13:02:29.326Z,83.03
2018-06-10T13:03:38.753Z,84.97
2018-06-10T13:04:47.629Z,86.23
2018-06-10T13:05:56.503Z,85.55
2018-06-10T13:07:05.805Z,86.52
2018-06-10T13:08:15.233Z,84.1
2018-06-10T13:09:24.393Z,86.47
2018-06-10T13:10:33.270Z,84.53
2018-06-10T13:11:42.146Z,81.82
2018-06-10T13:12:51.172Z,82.73
2018-06-10T13:14:00.057Z,84.86
2018-06-10T13:15:08.936Z,77.39
2018-06-10T13:16:18.085Z,83.5
2018-06-10T13:17:26.961Z,81.47
2018-06-10T13:18:35.832Z,82.44
2018-06-10T13:19:44.985Z,81.7
2018-06-10T13:20:53.859Z,83.54
2018-06-10T13:22:03.017Z,82.57
2018-06-10T13:23:12.173Z,81.9
2018-06-10T13:24:21.152Z,85
2018-06-10T13:25:30.028Z,81.9
2018-06-10T13:26:38.906Z,79.37
2018-06-10T13:27:47.781Z,78.73
2018-06-10T13:28:56.657Z,79.22
2018-06-10T13:30:05.583Z,81.02
2018-06-10T13:31:14.459Z,81.21
2018-06-10T13:32:23.336Z,82.67
2018-06-10T13:33:32.486Z,82.09
2018-06-10T13:34:41.367Z,81.21
2018-06-10T13:35:50.340Z,80.83
2018-06-10T13:36:59.220Z,79.63
2018-06-10T13:38:08.496Z,80.98
2018-06-10T13:39:20.274Z,79.82
2018-06-10T13:40:29.175Z,83.25
2018-06-10T13:41:38.632Z,81.41
2018-06-10T13:42:47.503Z,83.39
2018-06-10T13:43:56.377Z,81.16
2018-06-10T13:45:05.251Z,79.32
2018-06-10T13:46:14.134Z,78.73
2018-06-10T13:47:23.199Z,84.07
2018-06-10T13:48:32.078Z,85.19
2018-06-10T13:49:40.951Z,80.05
2018-06-10T13:50:49.827Z,79.47
2018-06-10T13:51:58.702Z,83.31
2018-06-10T13:53:07.672Z,82.34
2018-06-10T13:54:16.548Z,85.11
2018-06-10T13:55:25.427Z,82.5
2018-06-10T13:56:34.296Z,82.98
2018-06-10T13:57:43.169Z,82.35
2018-06-10T13:58:52.389Z,83.23
2018-06-10T14:00:01.261Z,80.71
2018-06-10T14:01:10.410Z,81.1
2018-06-10T14:02:19.283Z,81.45
2018-06-10T14:03:28.427Z,86.38
2018-06-10T14:04:37.720Z,83.86
2018-06-10T14:05:46.591Z,84.93
2018-06-10T14:06:55.460Z,83.72
2018-06-10T14:08:04.891Z,84.78
2018-06-10T14:09:13.762Z,84.39
2018-06-10T14:10:22.639Z,81.43
2018-06-10T14:11:31.903Z,85.6
2018-06-10T14:12:41.660Z,81.62
2018-06-10T14:13:50.532Z,83.65
2018-06-10T14:14:59.681Z,83.17
2018-06-10T14:16:08.989Z,80.85
2018-06-10T14:17:17.864Z,83.27
2018-06-10T14:18:27.015Z,82.78
2018-06-10T14:19:35.886Z,81.33
2018-06-10T14:20:45.362Z,81.04
2018-06-10T14:21:54.288Z,82.2
2018-06-10T14:23:03.158Z,85.3
2018-06-10T14:24:12.592Z,85.46
2018-06-10T14:25:21.463Z,86.72
2018-06-10T14:26:30.333Z,85.17
2018-06-10T14:27:39.355Z,85.94
2018-06-10T14:28:48.223Z,83.38
2018-06-10T14:29:57.375Z,84.74
2018-06-10T14:31:06.525Z,84.74
2018-06-10T14:32:15.395Z,85.96
2018-06-10T14:33:24.416Z,84.6
2018-06-10T14:34:33.285Z,85.47
2018-06-10T14:35:42.158Z,84.79
2018-06-10T14:36:51.026Z,84.64
2018-06-10T14:38:00.476Z,86.77
2018-06-10T14:39:09.436Z,84.45
2018-06-10T14:40:18.583Z,83.86
2018-06-10T14:41:27.457Z,86.96
2018-06-10T14:42:36.330Z,83.77
2018-06-10T14:43:45.481Z,83.96
2018-06-10T14:44:54.450Z,83.48
2018-06-10T14:46:03.319Z,83.09
2018-06-10T14:47:12.189Z,82.51
2018-06-10T14:48:21.342Z,80.67
2018-06-10T14:49:30.610Z,81.1
2018-06-10T14:50:39.916Z,81.2
2018-06-10T14:51:48.785Z,82.1